createdAt,value
2017-03-04T00:01:08.450Z,0
2017-03-04T00:02:18.765Z,0
2017-03-04T00:03:29.462Z,0
2017-03-04T00:04:40.161Z,0
2017-03-04T00:05:50.879Z,0
2017-03-04T00:07:01.586Z,0
2017-03-04T00:08:12.283Z,0
2017-03-04T00:09:22.597Z,0
2017-03-04T00:10:32.923Z,0
2017-03-04T00:11:43.623Z,0
2017-03-04T00:12:54.319Z,0
2017-03-04T00:14:04.617Z,0
2017-03-04T00:15:15.307Z,0
2017-03-04T00:16:26.051Z,0
2017-03-04T00:17:36.790Z,0
2017-03-04T00:18:47.496Z,0
2017-03-04T00:19:58.211Z,0
2017-03-04T00:21:08.524Z,0
2017-03-04T00:22:19.225Z,0
2017-03-04T00:23:29.917Z,0
2017-03-04T00:24:40.622Z,0
2017-03-04T00:25:51.347Z,0
2017-03-04T00:27:02.039Z,0
2017-03-04T00:28:12.760Z,0
2017-03-04T00:29:23.440Z,0
2017-03-04T00:30:34.127Z,0
2017-03-04T00:31:44.852Z,0
2017-03-04T00:32:55.559Z,0
2017-03-04T00:34:06.251Z,0
2017-03-04T00:35:16.955Z,0
2017-03-04T00:36:27.660Z,0
2017-03-04T00:37:38.371Z,0
2017-03-04T00:38:49.079Z,0
2017-03-04T00:39:59.784Z,0
2017-03-04T00:41:10.477Z,0
2017-03-04T00:42:21.187Z,0
2017-03-04T00:43:31.907Z,0
2017-03-04T00:44:42.210Z,0
2017-03-04T00:45:52.907Z,0
2017-03-04T00:47:03.614Z,0
2017-03-04T00:48:14.309Z,0
2017-03-04T00:49:24.602Z,0
2017-03-04T00:50:35.311Z,0
2017-03-04T00:51:46.009Z,0
2017-03-04T00:52:56.704Z,0
2017-03-04T00:54:07.438Z,0
2017-03-04T00:55:17.749Z,0
2017-03-04T00:56:28.441Z,0
2017-03-04T00:57:39.137Z,0
2017-03-04T00:58:49.839Z,0
2017-03-04T01:00:00.539Z,0
2017-03-04T01:01:11.228Z,0
2017-03-04T01:02:21.920Z,0
2017-03-04T01:03:32.633Z,0
2017-03-04T01:04:43.322Z,0
2017-03-04T01:05:54.019Z,0
2017-03-04T01:07:04.735Z,0
2017-03-04T01:08:15.509Z,0
2017-03-04T01:09:26.217Z,0
2017-03-04T01:10:36.903Z,0
2017-03-04T01:11:47.609Z,0
2017-03-04T01:12:58.299Z,0
2017-03-04T01:14:08.998Z,0
2017-03-04T01:15:19.703Z,0
2017-03-04T01:16:29.999Z,0
2017-03-04T01:17:40.696Z,0
2017-03-04T01:18:50.989Z,0
2017-03-04T01:20:01.686Z,0
2017-03-04T01:21:12.413Z,0
2017-03-04T01:22:23.106Z,0
2017-03-04T01:23:33.809Z,0
2017-03-04T01:24:44.512Z,0
2017-03-04T01:25:55.231Z,0
2017-03-04T01:27:05.936Z,0
2017-03-04T01:28:16.652Z,0
2017-03-04T01:29:27.355Z,0
2017-03-04T01:30:37.671Z,0
2017-03-04T01:31:48.377Z,0
2017-03-04T01:32:59.071Z,0
2017-03-04T01:34:09.768Z,0
2017-03-04T01:35:20.464Z,0
2017-03-04T01:36:30.778Z,0
2017-03-04T01:37:41.474Z,0
2017-03-04T01:38:52.193Z,0
2017-03-04T01:40:02.913Z,0
2017-03-04T01:41:13.607Z,0
2017-03-04T01:42:24.294Z,0
2017-03-04T01:43:35.010Z,0
2017-03-04T01:44:46.071Z,0
2017-03-04T01:45:56.373Z,0
2017-03-04T01:47:07.066Z,0
2017-03-04T01:48:17.769Z,0
2017-03-04T01:49:28.471Z,0
2017-03-04T01:50:38.775Z,0
2017-03-04T01:51:49.468Z,0
2017-03-04T01:53:00.178Z,0
2017-03-04T01:54:10.867Z,0
2017-03-04T01:55:21.579Z,0
2017-03-04T01:56:32.273Z,0
2017-03-04T01:57:42.971Z,0
2017-03-04T01:58:53.683Z,0
2017-03-04T02:00:04.405Z,0
2017-03-04T02:01:15.124Z,0
2017-03-04T02:02:25.826Z,0
2017-03-04T02:03:36.525Z,0
2017-03-04T02:04:47.223Z,0
2017-03-04T02:05:57.945Z,0
2017-03-04T02:07:08.644Z,0
2017-03-04T02:08:18.938Z,0
2017-03-04T02:09:29.632Z,0
2017-03-04T02:10:40.353Z,0
2017-03-04T02:11:51.049Z,0
2017-03-04T02:13:01.775Z,0
2017-03-04T02:14:11.674Z,0
2017-03-04T02:15:22.381Z,0
2017-03-04T02:16:32.675Z,0
2017-03-04T02:17:43.390Z,0
2017-03-04T02:18:54.093Z,0
2017-03-04T02:20:04.786Z,0
2017-03-04T02:21:15.496Z,0
2017-03-04T02:22:26.199Z,0
2017-03-04T02:23:36.891Z,0
2017-03-04T02:24:47.618Z,0
2017-03-04T02:25:58.318Z,0
2017-03-04T02:27:08.625Z,0
2017-03-04T02:28:19.333Z,0
2017-03-04T02:29:30.046Z,0
2017-03-04T02:30:40.760Z,0
2017-03-04T02:31:51.465Z,0
2017-03-04T02:33:02.152Z,0
2017-03-04T02:34:12.850Z,0
2017-03-04T02:35:23.549Z,0
2017-03-04T02:36:34.241Z,0
2017-03-04T02:37:44.951Z,0
2017-03-04T02:38:55.646Z,0
2017-03-04T02:40:06.355Z,0
2017-03-04T02:41:17.062Z,0
2017-03-04T02:42:27.761Z,0
2017-03-04T02:43:38.054Z,0
2017-03-04T02:44:48.768Z,0
2017-03-04T02:45:59.485Z,0
2017-03-04T02:47:10.217Z,0
2017-03-04T02:48:20.957Z,0
2017-03-04T02:49:31.264Z,0
2017-03-04T02:50:41.959Z,0
2017-03-04T02:51:52.675Z,0
2017-03-04T02:53:03.387Z,0
2017-03-04T02:54:14.102Z,0
2017-03-04T02:55:24.815Z,0
2017-03-04T02:56:35.505Z,0
2017-03-04T02:57:46.225Z,0
2017-03-04T02:58:56.917Z,0
2017-03-04T03:00:07.251Z,0
2017-03-04T03:01:17.938Z,0
2017-03-04T03:02:28.632Z,0
2017-03-04T03:03:39.351Z,0
2017-03-04T03:04:50.062Z,0
2017-03-04T03:06:00.758Z,0
2017-03-04T03:07:11.501Z,0
2017-03-04T03:08:22.220Z,0
2017-03-04T03:09:32.928Z,0
2017-03-04T03:10:43.631Z,0
2017-03-04T03:11:54.336Z,0
2017-03-04T03:13:05.045Z,0
2017-03-04T03:14:14.560Z,0
2017-03-04T03:15:25.270Z,0
2017-03-04T03:16:35.980Z,0
2017-03-04T03:17:46.665Z,0
2017-03-04T03:18:57.359Z,0
2017-03-04T03:20:07.646Z,0
2017-03-04T03:21:17.541Z,0
2017-03-04T03:22:28.260Z,0
2017-03-04T03:23:38.958Z,0
2017-03-04T03:24:49.651Z,0
2017-03-04T03:25:59.959Z,0
2017-03-04T03:27:10.271Z,0
2017-03-04T03:28:20.964Z,0
2017-03-04T03:29:31.666Z,0
2017-03-04T03:30:42.367Z,0
2017-03-04T03:31:53.085Z,0
2017-03-04T03:33:03.787Z,0
2017-03-04T03:34:14.500Z,0
2017-03-04T03:35:25.261Z,0
2017-03-04T03:36:35.966Z,0
2017-03-04T03:37:46.660Z,0
2017-03-04T03:38:57.362Z,0
2017-03-04T03:40:08.057Z,0
2017-03-04T03:41:18.387Z,0
2017-03-04T03:42:29.099Z,0
2017-03-04T03:43:39.807Z,0
2017-03-04T03:44:50.502Z,0
2017-03-04T03:46:01.211Z,0
2017-03-04T03:47:11.920Z,0
2017-03-04T03:48:22.628Z,0
2017-03-04T03:49:33.333Z,0
2017-03-04T03:50:44.070Z,0
2017-03-04T03:51:54.752Z,0
2017-03-04T03:53:05.463Z,0
2017-03-04T03:54:16.152Z,0
2017-03-04T03:55:26.857Z,0
2017-03-04T03:56:37.570Z,0
2017-03-04T03:57:48.266Z,0
2017-03-04T03:58:58.969Z,0
2017-03-04T04:00:09.674Z,0
2017-03-04T04:01:19.987Z,0
2017-03-04T04:02:30.702Z,0
2017-03-04T04:03:41.398Z,0
2017-03-04T04:04:52.114Z,0
2017-03-04T04:06:02.801Z,0
2017-03-04T04:07:13.530Z,0
2017-03-04T04:08:24.238Z,0
2017-03-04T04:09:34.532Z,0
2017-03-04T04:10:45.261Z,0
2017-03-04T04:11:55.969Z,0
2017-03-04T04:13:06.678Z,0
2017-03-04T04:14:16.979Z,0
2017-03-04T04:15:27.687Z,0
2017-03-04T04:16:38.002Z,0
2017-03-04T04:17:48.706Z,0
2017-03-04T04:18:59.390Z,0
2017-03-04T04:20:10.090Z,0
2017-03-04T04:21:20.776Z,0
2017-03-04T04:22:31.471Z,0
2017-03-04T04:23:44.266Z,0
2017-03-04T04:24:54.973Z,0
2017-03-04T04:26:05.687Z,0
2017-03-04T04:27:16.386Z,0
2017-03-04T04:28:27.085Z,0
2017-03-04T04:29:37.785Z,0
2017-03-04T04:30:48.506Z,0
2017-03-04T04:31:59.212Z,0
2017-03-04T04:33:09.918Z,0
2017-03-04T04:34:20.607Z,0
2017-03-04T04:35:31.305Z,0
2017-03-04T04:36:41.994Z,0
2017-03-04T04:37:52.708Z,0
2017-03-04T04:39:03.013Z,0
2017-03-04T04:40:13.344Z,0
2017-03-04T04:41:23.231Z,0
2017-03-04T04:42:33.940Z,0
2017-03-04T04:43:44.650Z,0
2017-03-04T04:44:55.356Z,0
2017-03-04T04:46:06.057Z,0
2017-03-04T04:47:16.365Z,0
2017-03-04T04:48:27.083Z,0
2017-03-04T04:49:37.379Z,0
2017-03-04T04:50:48.086Z,0
2017-03-04T04:51:58.798Z,0
2017-03-04T04:53:09.488Z,0
2017-03-04T04:54:20.183Z,0
2017-03-04T04:55:30.872Z,0
2017-03-04T04:56:41.576Z,0
2017-03-04T04:57:52.288Z,0
2017-03-04T04:59:02.997Z,0
2017-03-04T05:00:13.733Z,0
2017-03-04T05:01:24.038Z,0
2017-03-04T05:02:34.725Z,0
2017-03-04T05:03:45.023Z,0
2017-03-04T05:04:55.718Z,0
2017-03-04T05:06:06.442Z,0
2017-03-04T05:07:16.748Z,0
2017-03-04T05:08:27.449Z,0
2017-03-04T05:09:37.764Z,0
2017-03-04T05:10:48.453Z,0
2017-03-04T05:11:59.149Z,0
2017-03-04T05:13:09.851Z,0
2017-03-04T05:14:20.535Z,0
2017-03-04T05:15:31.251Z,0
2017-03-04T05:16:41.951Z,0
2017-03-04T05:17:52.650Z,0
2017-03-04T05:19:03.345Z,0
2017-03-04T05:20:14.056Z,0
2017-03-04T05:21:24.342Z,0
2017-03-04T05:22:35.043Z,0
2017-03-04T05:23:45.744Z,0
2017-03-04T05:24:56.449Z,0
2017-03-04T05:26:07.134Z,0
2017-03-04T05:27:17.432Z,0
2017-03-04T05:28:28.133Z,0
2017-03-04T05:29:38.855Z,0
2017-03-04T05:30:49.566Z,0
2017-03-04T05:32:00.264Z,0
2017-03-04T05:33:10.155Z,0
2017-03-04T05:34:20.466Z,0
2017-03-04T05:35:31.166Z,0
2017-03-04T05:36:41.890Z,0
2017-03-04T05:37:52.595Z,0
2017-03-04T05:39:03.303Z,0
2017-03-04T05:40:13.997Z,0
2017-03-04T05:41:24.708Z,0
2017-03-04T05:42:35.408Z,0
2017-03-04T05:43:46.102Z,0
2017-03-04T05:44:56.828Z,0
2017-03-04T05:46:07.539Z,0
2017-03-04T05:47:18.239Z,0
2017-03-04T05:48:28.927Z,0
2017-03-04T05:49:39.619Z,0
2017-03-04T05:50:50.306Z,0
2017-03-04T05:52:01.020Z,0
2017-03-04T05:53:11.727Z,0
2017-03-04T05:54:21.660Z,0
2017-03-04T05:55:31.971Z,0
2017-03-04T05:56:42.667Z,0
2017-03-04T05:57:53.379Z,0
2017-03-04T05:59:04.071Z,0
2017-03-04T06:00:14.783Z,0
2017-03-04T06:01:25.069Z,5
2017-03-04T06:02:35.783Z,5
2017-03-04T06:03:46.471Z,5
2017-03-04T06:04:57.181Z,5
2017-03-04T06:06:07.881Z,5
2017-03-04T06:07:18.587Z,5
2017-03-04T06:08:28.888Z,5
2017-03-04T06:09:39.575Z,5
2017-03-04T06:10:50.283Z,5
2017-03-04T06:12:01.022Z,10
2017-03-04T06:13:11.719Z,10
2017-03-04T06:14:22.443Z,10
2017-03-04T06:15:33.134Z,10
2017-03-04T06:16:43.831Z,10
2017-03-04T06:17:54.542Z,10
2017-03-04T06:19:05.231Z,15
2017-03-04T06:20:15.935Z,15
2017-03-04T06:21:26.651Z,15
2017-03-04T06:22:36.946Z,15
2017-03-04T06:23:47.640Z,15
2017-03-04T06:24:57.948Z,20
2017-03-04T06:26:08.642Z,20
2017-03-04T06:27:19.365Z,20
2017-03-04T06:28:29.272Z,20
2017-03-04T06:29:39.991Z,25
2017-03-04T06:30:50.679Z,25
2017-03-04T06:32:01.369Z,25
2017-03-04T06:33:12.087Z,25
2017-03-04T06:34:22.788Z,30
2017-03-04T06:35:33.519Z,30
2017-03-04T06:36:44.200Z,30
2017-03-04T06:37:54.909Z,35
2017-03-04T06:39:05.229Z,35
2017-03-04T06:40:15.934Z,40
2017-03-04T06:41:26.672Z,40
2017-03-04T06:42:36.973Z,45
2017-03-04T06:43:47.690Z,45
2017-03-04T06:44:58.388Z,50
2017-03-04T06:46:09.084Z,55
2017-03-04T06:47:19.788Z,55
2017-03-04T06:48:30.094Z,60
2017-03-04T06:49:40.794Z,60
2017-03-04T06:50:51.486Z,60
2017-03-04T06:52:02.266Z,65
2017-03-04T06:53:12.969Z,65
2017-03-04T06:54:23.663Z,65
2017-03-04T06:55:34.359Z,65
2017-03-04T06:56:44.655Z,65
2017-03-04T06:57:55.345Z,70
2017-03-04T06:59:06.054Z,70
2017-03-04T07:00:16.747Z,70
2017-03-04T07:01:27.445Z,70
2017-03-04T07:02:38.153Z,75
2017-03-04T07:03:48.855Z,75
2017-03-04T07:04:59.172Z,80
2017-03-04T07:06:09.867Z,80
2017-03-04T07:07:20.589Z,80
2017-03-04T07:08:31.302Z,80
2017-03-04T07:09:41.986Z,80
2017-03-04T07:10:52.703Z,85
2017-03-04T07:12:03.392Z,85
2017-03-04T07:13:14.095Z,85
2017-03-04T07:14:24.424Z,90
2017-03-04T07:15:35.122Z,90
2017-03-04T07:16:45.828Z,90
2017-03-04T07:17:56.533Z,100
2017-03-04T07:19:06.830Z,95
2017-03-04T07:20:17.552Z,95
2017-03-04T07:21:28.247Z,100
2017-03-04T07:22:38.957Z,100
2017-03-04T07:23:49.657Z,105
2017-03-04T07:25:00.360Z,105
2017-03-04T07:26:10.679Z,110
2017-03-04T07:27:21.397Z,110
2017-03-04T07:28:32.084Z,115
2017-03-04T07:29:42.819Z,115
2017-03-04T07:30:53.524Z,115
2017-03-04T07:32:04.243Z,125
2017-03-04T07:33:14.951Z,120
2017-03-04T07:34:25.661Z,120
2017-03-04T07:35:36.361Z,125
2017-03-04T07:36:47.057Z,125
2017-03-04T07:37:57.775Z,125
2017-03-04T07:39:08.492Z,125
2017-03-04T07:40:19.206Z,125
2017-03-04T07:41:29.524Z,125
2017-03-04T07:42:40.213Z,125
2017-03-04T07:43:50.901Z,130
2017-03-04T07:45:01.604Z,130
2017-03-04T07:46:12.297Z,135
2017-03-04T07:47:22.996Z,135
2017-03-04T07:48:33.704Z,140
2017-03-04T07:49:44.415Z,145
2017-03-04T07:50:55.112Z,145
2017-03-04T07:52:05.808Z,150
2017-03-04T07:53:16.504Z,155
2017-03-04T07:54:27.244Z,160
2017-03-04T07:55:37.951Z,165
2017-03-04T07:56:48.668Z,165
2017-03-04T07:57:59.379Z,170
2017-03-04T07:59:10.072Z,175
2017-03-04T08:00:20.764Z,180
2017-03-04T08:01:33.480Z,185
2017-03-04T08:02:44.203Z,195
2017-03-04T08:03:54.897Z,200
2017-03-04T08:05:05.602Z,205
2017-03-04T08:06:16.327Z,210
2017-03-04T08:07:27.055Z,215
2017-03-04T08:08:37.379Z,215
2017-03-04T08:09:48.086Z,220
2017-03-04T08:10:58.793Z,225
2017-03-04T08:12:09.097Z,225
2017-03-04T08:13:19.817Z,230
2017-03-04T08:14:30.118Z,230
2017-03-04T08:15:40.812Z,230
2017-03-04T08:16:51.525Z,235
2017-03-04T08:18:02.232Z,235
2017-03-04T08:19:12.572Z,235
2017-03-04T08:20:23.261Z,235
2017-03-04T08:21:33.964Z,235
2017-03-04T08:22:44.678Z,230
2017-03-04T08:23:55.386Z,230
2017-03-04T08:25:05.713Z,235
2017-03-04T08:26:16.410Z,225
2017-03-04T08:27:27.153Z,225
2017-03-04T08:28:37.863Z,230
2017-03-04T08:29:48.571Z,230
2017-03-04T08:30:59.275Z,230
2017-03-04T08:32:09.975Z,230
2017-03-04T08:33:20.681Z,230
2017-03-04T08:34:30.597Z,230
2017-03-04T08:35:41.286Z,235
2017-03-04T08:36:51.986Z,240
2017-03-04T08:38:02.287Z,250
2017-03-04T08:39:12.980Z,260
2017-03-04T08:40:23.710Z,260
2017-03-04T08:41:34.442Z,260
2017-03-04T08:42:45.155Z,260
2017-03-04T08:43:55.866Z,260
2017-03-04T08:45:06.563Z,270
2017-03-04T08:46:17.295Z,275
2017-03-04T08:47:28.007Z,275
2017-03-04T08:48:38.711Z,275
2017-03-04T08:49:49.430Z,280
2017-03-04T08:51:00.138Z,280
2017-03-04T08:52:10.844Z,270
2017-03-04T08:53:21.542Z,265
2017-03-04T08:54:31.856Z,270
2017-03-04T08:55:42.547Z,275
2017-03-04T08:56:53.255Z,280
2017-03-04T08:58:03.969Z,280
2017-03-04T08:59:14.699Z,275
2017-03-04T09:00:25.400Z,275
2017-03-04T09:01:36.128Z,280
2017-03-04T09:02:46.838Z,290
2017-03-04T09:03:57.527Z,300
2017-03-04T09:05:07.850Z,300
2017-03-04T09:06:18.538Z,305
2017-03-04T09:07:29.231Z,305
2017-03-04T09:08:39.984Z,310
2017-03-04T09:09:50.737Z,320
2017-03-04T09:11:01.426Z,315
2017-03-04T09:12:11.738Z,305
2017-03-04T09:13:22.448Z,310
2017-03-04T09:14:33.154Z,310
2017-03-04T09:15:43.864Z,320
2017-03-04T09:16:54.587Z,320
2017-03-04T09:18:05.285Z,315
2017-03-04T09:19:15.997Z,305
2017-03-04T09:20:26.702Z,300
2017-03-04T09:21:37.030Z,290
2017-03-04T09:22:47.728Z,285
2017-03-04T09:23:58.429Z,290
2017-03-04T09:25:09.130Z,305
2017-03-04T09:26:19.816Z,315
2017-03-04T09:27:30.529Z,320
2017-03-04T09:28:41.296Z,330
2017-03-04T09:29:52.021Z,335
2017-03-04T09:31:02.747Z,355
2017-03-04T09:32:13.479Z,365
2017-03-04T09:33:24.196Z,375
2017-03-04T09:34:34.906Z,380
2017-03-04T09:35:45.622Z,385
2017-03-04T09:36:56.324Z,395
2017-03-04T09:38:07.028Z,415
2017-03-04T09:39:17.740Z,425
2017-03-04T09:40:28.455Z,430
2017-03-04T09:41:41.157Z,440
2017-03-04T09:42:51.849Z,440
2017-03-04T09:44:02.574Z,440
2017-03-04T09:45:12.880Z,440
2017-03-04T09:46:23.590Z,445
2017-03-04T09:47:34.283Z,440
2017-03-04T09:48:44.985Z,435
2017-03-04T09:49:55.681Z,430
2017-03-04T09:51:06.435Z,435
2017-03-04T09:52:16.770Z,440
2017-03-04T09:53:27.492Z,440
2017-03-04T09:54:38.183Z,435
2017-03-04T09:55:48.894Z,430
2017-03-04T09:56:59.612Z,430
2017-03-04T09:58:10.321Z,430
2017-03-04T09:59:21.043Z,430
2017-03-04T10:00:31.749Z,425
2017-03-04T10:01:42.465Z,415
2017-03-04T10:02:53.176Z,410
2017-03-04T10:04:03.471Z,410
2017-03-04T10:05:14.176Z,420
2017-03-04T10:06:24.881Z,435
2017-03-04T10:07:35.596Z,445
2017-03-04T10:08:46.292Z,460
2017-03-04T10:09:56.989Z,475
2017-03-04T10:11:07.704Z,470
2017-03-04T10:12:18.402Z,495
2017-03-04T10:13:29.159Z,505
2017-03-04T10:14:39.864Z,525
2017-03-04T10:15:50.572Z,525
2017-03-04T10:17:01.290Z,505
2017-03-04T10:18:12.004Z,485
2017-03-04T10:19:22.711Z,465
2017-03-04T10:20:33.419Z,450
2017-03-04T10:21:44.163Z,445
2017-03-04T10:22:54.876Z,440
2017-03-04T10:24:05.609Z,420
2017-03-04T10:25:15.932Z,400
2017-03-04T10:26:26.643Z,395
2017-03-04T10:27:36.986Z,390
2017-03-04T10:28:47.720Z,390
2017-03-04T10:29:58.432Z,390
2017-03-04T10:31:09.129Z,395
2017-03-04T10:32:19.865Z,415
2017-03-04T10:33:30.595Z,430
2017-03-04T10:34:41.294Z,450
2017-03-04T10:35:51.997Z,455
2017-03-04T10:37:02.703Z,450
2017-03-04T10:38:13.398Z,450
2017-03-04T10:39:24.117Z,445
2017-03-04T10:40:34.834Z,440
2017-03-04T10:41:45.559Z,410
2017-03-04T10:42:55.871Z,410
2017-03-04T10:44:06.594Z,425
2017-03-04T10:45:17.298Z,435
2017-03-04T10:46:28.002Z,445
2017-03-04T10:47:38.716Z,460
2017-03-04T10:48:49.412Z,475
2017-03-04T10:49:59.728Z,505
2017-03-04T10:51:10.434Z,520
2017-03-04T10:52:21.143Z,510
2017-03-04T10:53:31.842Z,500
2017-03-04T10:54:42.153Z,500
2017-03-04T10:55:52.861Z,505
2017-03-04T10:57:03.564Z,495
2017-03-04T10:58:14.262Z,475
2017-03-04T10:59:24.971Z,465
2017-03-04T11:00:35.668Z,475
2017-03-04T11:01:46.381Z,510
2017-03-04T11:02:57.085Z,530
2017-03-04T11:04:07.791Z,550
2017-03-04T11:05:18.516Z,565
2017-03-04T11:06:29.224Z,565
2017-03-04T11:07:39.940Z,545
2017-03-04T11:08:50.246Z,515
2017-03-04T11:10:00.949Z,465
2017-03-04T11:11:11.246Z,420
2017-03-04T11:12:21.992Z,395
2017-03-04T11:13:32.707Z,390
2017-03-04T11:14:43.412Z,390
2017-03-04T11:15:54.130Z,375
2017-03-04T11:17:04.849Z,360
2017-03-04T11:18:15.554Z,345
2017-03-04T11:19:25.849Z,355
2017-03-04T11:20:36.564Z,365
2017-03-04T11:21:47.300Z,360
2017-03-04T11:22:58.006Z,365
2017-03-04T11:24:08.715Z,375
2017-03-04T11:25:19.425Z,385
2017-03-04T11:26:30.131Z,395
2017-03-04T11:27:40.578Z,415
2017-03-04T11:28:51.295Z,410
2017-03-04T11:30:01.989Z,400
2017-03-04T11:31:12.296Z,395
2017-03-04T11:32:23.001Z,395
2017-03-04T11:33:33.702Z,395
2017-03-04T11:34:44.415Z,395
2017-03-04T11:35:55.119Z,395
2017-03-04T11:37:05.835Z,395
2017-03-04T11:38:16.541Z,395
2017-03-04T11:39:27.252Z,395
2017-03-04T11:40:37.562Z,390
2017-03-04T11:41:48.259Z,380
2017-03-04T11:42:58.953Z,385
2017-03-04T11:44:08.875Z,380
2017-03-04T11:45:19.587Z,380
2017-03-04T11:46:30.304Z,380
2017-03-04T11:47:41.019Z,380
2017-03-04T11:48:51.716Z,380
2017-03-04T11:50:02.432Z,375
2017-03-04T11:51:13.148Z,375
2017-03-04T11:52:23.856Z,375
2017-03-04T11:53:34.564Z,380
2017-03-04T11:54:45.288Z,380
2017-03-04T11:55:55.616Z,380
2017-03-04T11:57:05.953Z,385
2017-03-04T11:58:16.663Z,380
2017-03-04T11:59:27.364Z,370
2017-03-04T12:00:38.067Z,355
2017-03-04T12:01:48.780Z,340
2017-03-04T12:02:59.522Z,320
2017-03-04T12:04:10.243Z,310
2017-03-04T12:05:20.952Z,330
2017-03-04T12:06:31.653Z,350
2017-03-04T12:07:42.371Z,350
2017-03-04T12:08:53.103Z,335
2017-03-04T12:10:03.835Z,335
2017-03-04T12:11:14.533Z,335
2017-03-04T12:12:25.252Z,335
2017-03-04T12:13:35.946Z,340
2017-03-04T12:14:46.647Z,335
2017-03-04T12:15:57.340Z,330
2017-03-04T12:17:08.056Z,325
2017-03-04T12:18:18.821Z,325
2017-03-04T12:19:29.529Z,325
2017-03-04T12:20:40.223Z,320
2017-03-04T12:21:50.931Z,315
2017-03-04T12:23:01.646Z,315
2017-03-04T12:24:11.965Z,315
2017-03-04T12:25:22.669Z,325
2017-03-04T12:26:33.370Z,320
2017-03-04T12:27:43.666Z,315
2017-03-04T12:28:54.364Z,305
2017-03-04T12:30:04.662Z,305
2017-03-04T12:31:15.365Z,305
2017-03-04T12:32:25.680Z,305
2017-03-04T12:33:36.373Z,305
2017-03-04T12:34:47.080Z,305
2017-03-04T12:35:57.796Z,305
2017-03-04T12:37:08.523Z,300
2017-03-04T12:38:18.449Z,290
2017-03-04T12:39:29.155Z,280
2017-03-04T12:40:39.894Z,270
2017-03-04T12:41:50.637Z,265
2017-03-04T12:43:01.351Z,260
2017-03-04T12:44:12.068Z,255
2017-03-04T12:45:22.774Z,245
2017-03-04T12:46:33.486Z,240
2017-03-04T12:47:44.182Z,245
2017-03-04T12:48:54.891Z,250
2017-03-04T12:50:05.609Z,265
2017-03-04T12:51:16.307Z,280
2017-03-04T12:52:27.030Z,295
2017-03-04T12:53:37.745Z,295
2017-03-04T12:54:48.470Z,290
2017-03-04T12:55:59.173Z,280
2017-03-04T12:57:09.867Z,280
2017-03-04T12:58:20.576Z,290
2017-03-04T12:59:31.282Z,300
2017-03-04T13:00:42.008Z,300
2017-03-04T13:01:53.074Z,310
2017-03-04T13:03:03.767Z,310
2017-03-04T13:04:14.095Z,315
2017-03-04T13:05:24.799Z,320
2017-03-04T13:06:35.495Z,320
2017-03-04T13:07:46.208Z,330
2017-03-04T13:08:56.926Z,330
2017-03-04T13:10:07.620Z,330
2017-03-04T13:11:18.337Z,320
2017-03-04T13:12:29.040Z,325
2017-03-04T13:13:39.766Z,310
2017-03-04T13:14:50.078Z,305
2017-03-04T13:16:00.791Z,300
2017-03-04T13:17:11.528Z,300
2017-03-04T13:18:22.242Z,295
2017-03-04T13:19:32.953Z,295
2017-03-04T13:20:43.275Z,295
2017-03-04T13:21:53.967Z,290
2017-03-04T13:23:04.690Z,290
2017-03-04T13:24:15.381Z,290
2017-03-04T13:25:26.089Z,285
2017-03-04T13:26:36.796Z,280
2017-03-04T13:27:47.511Z,275
2017-03-04T13:28:58.227Z,265
2017-03-04T13:30:08.538Z,260
2017-03-04T13:31:19.245Z,260
2017-03-04T13:32:29.939Z,265
2017-03-04T13:33:40.656Z,270
2017-03-04T13:34:51.381Z,270
2017-03-04T13:36:02.072Z,265
2017-03-04T13:37:12.779Z,260
2017-03-04T13:38:23.482Z,255
2017-03-04T13:39:34.201Z,260
2017-03-04T13:40:44.523Z,255
2017-03-04T13:41:55.265Z,255
2017-03-04T13:43:05.964Z,260
2017-03-04T13:44:16.701Z,255
2017-03-04T13:45:27.411Z,260
2017-03-04T13:46:37.729Z,255
2017-03-04T13:47:48.434Z,255
2017-03-04T13:48:59.147Z,250
2017-03-04T13:50:09.852Z,250
2017-03-04T13:51:20.565Z,250
2017-03-04T13:52:30.891Z,250
2017-03-04T13:53:41.599Z,245
2017-03-04T13:54:51.927Z,245
2017-03-04T13:56:02.649Z,245
2017-03-04T13:57:12.948Z,250
2017-03-04T13:58:23.656Z,250
2017-03-04T13:59:34.403Z,240
2017-03-04T14:00:45.108Z,230
2017-03-04T14:01:55.820Z,230
2017-03-04T14:03:06.530Z,230
2017-03-04T14:04:17.226Z,235
2017-03-04T14:05:27.517Z,230
2017-03-04T14:06:38.231Z,215
2017-03-04T14:07:48.939Z,190
2017-03-04T14:08:59.671Z,195
2017-03-04T14:10:09.995Z,190
2017-03-04T14:11:20.692Z,180
2017-03-04T14:12:31.401Z,170
2017-03-04T14:13:42.104Z,160
2017-03-04T14:14:52.418Z,155
2017-03-04T14:16:03.115Z,155
2017-03-04T14:17:13.834Z,155
2017-03-04T14:18:24.546Z,150
2017-03-04T14:19:35.257Z,150
2017-03-04T14:20:45.973Z,150
2017-03-04T14:21:56.680Z,145
2017-03-04T14:23:07.406Z,140
2017-03-04T14:24:17.725Z,140
2017-03-04T14:25:28.448Z,135
2017-03-04T14:26:39.136Z,135
2017-03-04T14:27:49.846Z,135
2017-03-04T14:29:00.560Z,135
2017-03-04T14:30:11.288Z,135
2017-03-04T14:31:21.619Z,140
2017-03-04T14:32:32.325Z,140
2017-03-04T14:33:43.016Z,140
2017-03-04T14:34:53.328Z,140
2017-03-04T14:36:04.035Z,145
2017-03-04T14:37:14.336Z,140
2017-03-04T14:38:25.064Z,140
2017-03-04T14:39:35.778Z,145
2017-03-04T14:40:46.078Z,140
2017-03-04T14:41:56.779Z,140
2017-03-04T14:43:07.494Z,130
2017-03-04T14:44:18.197Z,135
2017-03-04T14:45:28.918Z,135
2017-03-04T14:46:39.644Z,135
2017-03-04T14:47:49.958Z,135
2017-03-04T14:49:00.669Z,135
2017-03-04T14:50:11.373Z,135
2017-03-04T14:51:21.279Z,135
2017-03-04T14:52:31.582Z,140
2017-03-04T14:53:42.284Z,145
2017-03-04T14:54:52.589Z,145
2017-03-04T14:56:03.293Z,150
2017-03-04T14:57:13.996Z,150
2017-03-04T14:58:24.726Z,150
2017-03-04T14:59:34.632Z,145
2017-03-04T15:00:44.920Z,140
2017-03-04T15:01:55.224Z,135
2017-03-04T15:03:05.941Z,130
2017-03-04T15:04:16.634Z,120
2017-03-04T15:05:26.929Z,115
2017-03-04T15:06:36.442Z,105
2017-03-04T15:07:47.135Z,110
2017-03-04T15:08:57.840Z,110
2017-03-04T15:10:08.149Z,110
2017-03-04T15:11:18.861Z,110
2017-03-04T15:12:29.558Z,115
2017-03-04T15:13:40.263Z,115
2017-03-04T15:14:50.181Z,115
2017-03-04T15:16:00.883Z,110
2017-03-04T15:17:11.593Z,115
2017-03-04T15:18:22.301Z,115
2017-03-04T15:19:33.009Z,120
2017-03-04T15:20:43.720Z,120
2017-03-04T15:21:54.441Z,115
2017-03-04T15:23:05.162Z,110
2017-03-04T15:24:15.473Z,110
2017-03-04T15:25:26.170Z,110
2017-03-04T15:26:36.868Z,110
2017-03-04T15:27:47.587Z,110
2017-03-04T15:28:58.277Z,110
2017-03-04T15:30:09.003Z,105
2017-03-04T15:31:19.715Z,105
2017-03-04T15:32:30.029Z,100
2017-03-04T15:33:40.745Z,100
2017-03-04T15:34:51.458Z,95
2017-03-04T15:36:02.172Z,95
2017-03-04T15:37:12.468Z,95
2017-03-04T15:38:22.796Z,95
2017-03-04T15:39:33.501Z,95
2017-03-04T15:40:44.210Z,95
2017-03-04T15:41:54.516Z,95
2017-03-04T15:43:04.824Z,90
2017-03-04T15:44:15.130Z,90
2017-03-04T15:45:25.428Z,85
2017-03-04T15:46:36.160Z,85
2017-03-04T15:47:46.866Z,80
2017-03-04T15:48:57.584Z,80
2017-03-04T15:50:07.881Z,80
2017-03-04T15:51:18.589Z,75
2017-03-04T15:52:29.280Z,75
2017-03-04T15:53:39.996Z,70
2017-03-04T15:54:50.698Z,70
2017-03-04T15:56:01.427Z,65
2017-03-04T15:57:12.140Z,65
2017-03-04T15:58:22.455Z,65
2017-03-04T15:59:33.150Z,60
2017-03-04T16:00:43.864Z,60
2017-03-04T16:01:54.560Z,60
2017-03-04T16:03:04.880Z,55
2017-03-04T16:04:15.593Z,50
2017-03-04T16:05:26.331Z,50
2017-03-04T16:06:36.292Z,45
2017-03-04T16:07:46.993Z,40
2017-03-04T16:08:57.289Z,40
2017-03-04T16:10:07.626Z,40
2017-03-04T16:11:18.367Z,35
2017-03-04T16:12:29.068Z,35
2017-03-04T16:13:39.390Z,35
2017-03-04T16:14:50.089Z,30
2017-03-04T16:16:00.401Z,30
2017-03-04T16:17:11.117Z,30
2017-03-04T16:18:21.836Z,25
2017-03-04T16:19:32.165Z,25
2017-03-04T16:20:42.869Z,25
2017-03-04T16:21:53.183Z,25
2017-03-04T16:23:03.897Z,25
2017-03-04T16:24:14.593Z,25
2017-03-04T16:25:25.301Z,20
2017-03-04T16:26:36.023Z,20
2017-03-04T16:27:46.758Z,15
2017-03-04T16:28:57.460Z,15
2017-03-04T16:30:07.783Z,15
2017-03-04T16:31:18.494Z,15
2017-03-04T16:32:28.798Z,15
2017-03-04T16:33:39.499Z,15
2017-03-04T16:34:50.201Z,10
2017-03-04T16:36:00.532Z,10
2017-03-04T16:37:11.259Z,10
2017-03-04T16:38:21.972Z,10
2017-03-04T16:39:32.682Z,10
2017-03-04T16:40:43.389Z,10
2017-03-04T16:41:54.082Z,10
2017-03-04T16:43:03.990Z,10